createdAt,value
2017-04-09T00:00:24.893Z,0
2017-04-09T00:01:24.947Z,0
2017-04-09T00:02:24.999Z,0
2017-04-09T00:03:25.053Z,0
2017-04-09T00:04:25.109Z,0
2017-04-09T00:05:25.160Z,0
2017-04-09T00:06:25.212Z,0
2017-04-09T00:07:25.266Z,0
2017-04-09T00:08:25.322Z,0
2017-04-09T00:09:25.375Z,0
2017-04-09T00:10:25.426Z,0
2017-04-09T00:11:25.478Z,0
2017-04-09T00:12:25.531Z,0
2017-04-09T00:13:25.583Z,0
2017-04-09T00:14:25.636Z,0
2017-04-09T00:15:25.690Z,0
2017-04-09T00:16:25.745Z,0
2017-04-09T00:17:25.796Z,0
2017-04-09T00:18:25.851Z,0
2017-04-09T00:19:25.908Z,0
2017-04-09T00:20:25.652Z,0
2017-04-09T00:21:26.009Z,0
2017-04-09T00:22:26.079Z,0
2017-04-09T00:23:26.116Z,0
2017-04-09T00:24:26.169Z,0
2017-04-09T00:25:26.225Z,0
2017-04-09T00:26:25.983Z,0
2017-04-09T00:27:26.329Z,0
2017-04-09T00:28:26.384Z,0
2017-04-09T00:29:26.438Z,0
2017-04-09T00:30:26.491Z,0
2017-04-09T00:31:26.544Z,0
2017-04-09T00:32:26.596Z,0
2017-04-09T00:33:26.652Z,0
2017-04-09T00:34:26.705Z,0
2017-04-09T00:35:26.756Z,0
2017-04-09T00:36:26.817Z,0
2017-04-09T00:37:26.894Z,0
2017-04-09T00:38:26.922Z,0
2017-04-09T00:39:26.674Z,0
2017-04-09T00:40:27.039Z,0
2017-04-09T00:41:26.774Z,0
2017-04-09T00:42:27.131Z,0
2017-04-09T00:43:27.185Z,0
2017-04-09T00:44:27.232Z,0
2017-04-09T00:45:27.292Z,0
2017-04-09T00:46:27.346Z,0
2017-04-09T00:47:27.402Z,0
2017-04-09T00:48:27.449Z,0
2017-04-09T00:49:27.505Z,0
2017-04-09T00:50:27.555Z,0
2017-04-09T00:51:27.613Z,0
2017-04-09T00:52:27.667Z,0
2017-04-09T00:53:27.748Z,0
2017-04-09T00:54:27.775Z,0
2017-04-09T00:55:27.824Z,0
2017-04-09T00:56:27.889Z,0
2017-04-09T00:57:27.932Z,0
2017-04-09T00:58:28.000Z,0
2017-04-09T00:59:28.037Z,0
2017-04-09T01:00:28.095Z,0
2017-04-09T01:01:28.143Z,0
2017-04-09T01:02:28.238Z,0
2017-04-09T01:03:27.956Z,0
2017-04-09T01:04:28.305Z,0
2017-04-09T01:05:28.051Z,0
2017-04-09T01:06:28.412Z,0
2017-04-09T01:07:28.470Z,0
2017-04-09T01:08:28.519Z,0
2017-04-09T01:09:28.573Z,0
2017-04-09T01:10:28.628Z,0
2017-04-09T01:11:28.677Z,0
2017-04-09T01:12:28.727Z,0
2017-04-09T01:13:28.789Z,0
2017-04-09T01:14:28.837Z,0
2017-04-09T01:15:28.889Z,0
2017-04-09T01:16:28.638Z,0
2017-04-09T01:17:28.997Z,0
2017-04-09T01:18:29.049Z,0
2017-04-09T01:19:29.108Z,0
2017-04-09T01:20:29.157Z,0
2017-04-09T01:21:29.210Z,0
2017-04-09T01:22:29.264Z,0
2017-04-09T01:23:29.321Z,0
2017-04-09T01:24:29.368Z,0
2017-04-09T01:25:29.425Z,0
2017-04-09T01:26:29.478Z,0
2017-04-09T01:27:29.535Z,0
2017-04-09T01:28:29.588Z,0
2017-04-09T01:29:29.637Z,0
2017-04-09T01:30:29.690Z,0
2017-04-09T01:31:29.743Z,0
2017-04-09T01:32:29.795Z,0
2017-04-09T01:33:29.849Z,0
2017-04-09T01:34:29.902Z,0
2017-04-09T01:35:29.961Z,0
2017-04-09T01:36:30.011Z,0
2017-04-09T01:37:30.063Z,0
2017-04-09T01:38:30.122Z,0
2017-04-09T01:39:30.168Z,0
2017-04-09T01:40:30.226Z,0
2017-04-09T01:41:30.278Z,0
2017-04-09T01:42:30.331Z,0
2017-04-09T01:43:30.388Z,0
2017-04-09T01:44:30.437Z,0
2017-04-09T01:45:30.490Z,0
2017-04-09T01:46:30.545Z,0
2017-04-09T01:47:30.599Z,0
2017-04-09T01:48:30.647Z,0
2017-04-09T01:49:30.705Z,0
2017-04-09T01:50:30.750Z,0
2017-04-09T01:51:30.810Z,0
2017-04-09T01:52:30.859Z,0
2017-04-09T01:53:30.912Z,0
2017-04-09T01:54:30.967Z,0
2017-04-09T01:55:31.022Z,0
2017-04-09T01:56:31.076Z,0
2017-04-09T01:57:31.130Z,0
2017-04-09T01:58:31.184Z,0
2017-04-09T01:59:31.239Z,0
2017-04-09T02:00:31.290Z,0
2017-04-09T02:01:31.344Z,0
2017-04-09T02:02:31.392Z,0
2017-04-09T02:03:31.445Z,0
2017-04-09T02:04:31.501Z,0
2017-04-09T02:05:31.554Z,0
2017-04-09T02:06:31.811Z,0
2017-04-09T02:07:31.660Z,0
2017-04-09T02:08:31.718Z,0
2017-04-09T02:09:31.773Z,0
2017-04-09T02:10:31.818Z,0
2017-04-09T02:11:31.875Z,0
2017-04-09T02:12:31.928Z,0
2017-04-09T02:13:31.979Z,0
2017-04-09T02:14:32.034Z,0
2017-04-09T02:15:32.091Z,0
2017-04-09T02:16:32.142Z,0
2017-04-09T02:17:32.194Z,0
2017-04-09T02:18:32.248Z,0
2017-04-09T02:19:32.321Z,0
2017-04-09T02:20:32.357Z,0
2017-04-09T02:21:32.413Z,0
2017-04-09T02:22:32.463Z,0
2017-04-09T02:23:32.511Z,0
2017-04-09T02:24:32.571Z,0
2017-04-09T02:25:32.620Z,0
2017-04-09T02:26:32.376Z,0
2017-04-09T02:27:32.428Z,0
2017-04-09T02:28:32.180Z,0
2017-04-09T02:29:32.536Z,0
2017-04-09T02:30:32.892Z,0
2017-04-09T02:31:32.944Z,0
2017-04-09T02:32:32.995Z,0
2017-04-09T02:33:33.049Z,0
2017-04-09T02:34:33.106Z,0
2017-04-09T02:35:33.153Z,0
2017-04-09T02:36:33.205Z,0
2017-04-09T02:37:33.264Z,0
2017-04-09T02:38:33.316Z,0
2017-04-09T02:39:33.371Z,0
2017-04-09T02:40:34.056Z,0
2017-04-09T02:41:33.686Z,0
2017-04-09T02:42:33.233Z,0
2017-04-09T02:43:33.586Z,0
2017-04-09T02:44:33.638Z,0
2017-04-09T02:45:33.692Z,0
2017-04-09T02:46:33.744Z,0
2017-04-09T02:47:33.794Z,0
2017-04-09T02:48:33.858Z,0
2017-04-09T02:49:33.903Z,0
2017-04-09T02:50:33.956Z,0
2017-04-09T02:51:34.014Z,0
2017-04-09T02:52:34.059Z,0
2017-04-09T02:53:34.128Z,0
2017-04-09T02:54:34.172Z,0
2017-04-09T02:55:34.224Z,0
2017-04-09T02:56:34.276Z,0
2017-04-09T02:57:34.327Z,0
2017-04-09T02:58:34.079Z,0
2017-04-09T02:59:34.433Z,0
2017-04-09T03:00:34.486Z,0
2017-04-09T03:01:34.238Z,0
2017-04-09T03:02:34.594Z,0
2017-04-09T03:03:34.642Z,0
2017-04-09T03:04:34.701Z,0
2017-04-09T03:05:34.747Z,0
2017-04-09T03:06:34.802Z,0
2017-04-09T03:07:34.858Z,0
2017-04-09T03:08:34.916Z,0
2017-04-09T03:09:34.967Z,0
2017-04-09T03:10:34.713Z,0
2017-04-09T03:11:34.770Z,0
2017-04-09T03:12:35.023Z,0
2017-04-09T03:13:35.174Z,0
2017-04-09T03:14:35.228Z,0
2017-04-09T03:15:35.279Z,0
2017-04-09T03:16:35.333Z,0
2017-04-09T03:17:35.389Z,0
2017-04-09T03:18:35.442Z,0
2017-04-09T03:19:35.491Z,0
2017-04-09T03:20:35.541Z,0
2017-04-09T03:21:35.814Z,0
2017-04-09T03:22:35.651Z,0
2017-04-09T03:23:35.705Z,0
2017-04-09T03:24:35.760Z,0
2017-04-09T03:25:35.508Z,0
2017-04-09T03:26:35.864Z,0
2017-04-09T03:27:35.920Z,0
2017-04-09T03:28:35.972Z,0
2017-04-09T03:29:36.021Z,0
2017-04-09T03:30:36.077Z,0
2017-04-09T03:31:36.229Z,0
2017-04-09T03:32:36.182Z,0
2017-04-09T03:33:36.239Z,0
2017-04-09T03:34:36.285Z,0
2017-04-09T03:35:36.337Z,0
2017-04-09T03:36:36.396Z,0
2017-04-09T03:37:36.447Z,0
2017-04-09T03:38:36.506Z,0
2017-04-09T03:39:36.550Z,0
2017-04-09T03:40:36.602Z,0
2017-04-09T03:41:36.659Z,0
2017-04-09T03:42:36.712Z,0
2017-04-09T03:43:36.765Z,0
2017-04-09T03:44:36.820Z,0
2017-04-09T03:45:36.867Z,0
2017-04-09T03:46:36.924Z,0
2017-04-09T03:47:37.185Z,0
2017-04-09T03:48:37.031Z,0
2017-04-09T03:49:37.081Z,0
2017-04-09T03:50:37.133Z,0
2017-04-09T03:51:37.389Z,0
2017-04-09T03:52:37.241Z,0
2017-04-09T03:53:37.289Z,0
2017-04-09T03:54:37.346Z,0
2017-04-09T03:55:37.401Z,0
2017-04-09T03:56:37.366Z,0
2017-04-09T03:57:37.201Z,0
2017-04-09T03:58:37.555Z,0
2017-04-09T03:59:37.607Z,0
2017-04-09T04:00:37.363Z,0
2017-04-09T04:01:37.717Z,0
2017-04-09T04:02:37.773Z,0
2017-04-09T04:03:37.823Z,0
2017-04-09T04:04:37.876Z,0
2017-04-09T04:05:37.927Z,0
2017-04-09T04:06:37.978Z,0
2017-04-09T04:07:38.035Z,0
2017-04-09T04:08:37.789Z,0
2017-04-09T04:09:38.133Z,0
2017-04-09T04:10:38.190Z,0
2017-04-09T04:11:38.242Z,0
2017-04-09T04:12:38.296Z,0
2017-04-09T04:13:38.347Z,0
2017-04-09T04:14:38.401Z,4
2017-04-09T04:15:38.453Z,4
2017-04-09T04:16:38.509Z,0
2017-04-09T04:17:38.559Z,4
2017-04-09T04:18:38.312Z,4
2017-04-09T04:19:38.665Z,4
2017-04-09T04:20:38.720Z,8
2017-04-09T04:21:38.777Z,8
2017-04-09T04:22:38.530Z,8
2017-04-09T04:23:38.588Z,8
2017-04-09T04:24:38.927Z,12
2017-04-09T04:25:38.990Z,16
2017-04-09T04:26:38.939Z,20
2017-04-09T04:27:52.471Z,20
2017-04-09T04:28:39.139Z,24
2017-04-09T04:29:39.193Z,28
2017-04-09T04:30:39.245Z,32
2017-04-09T04:31:39.298Z,40
2017-04-09T04:32:39.255Z,44
2017-04-09T04:33:39.403Z,52
2017-04-09T04:34:39.459Z,60
2017-04-09T04:35:39.514Z,68
2017-04-09T04:36:39.558Z,76
2017-04-09T04:37:39.613Z,84
2017-04-09T04:38:39.663Z,92
2017-04-09T04:39:39.718Z,104
2017-04-09T04:40:39.771Z,116
2017-04-09T04:41:39.825Z,128
2017-04-09T04:42:39.874Z,136
2017-04-09T04:43:39.930Z,152
2017-04-09T04:44:39.983Z,164
2017-04-09T04:45:40.033Z,180
2017-04-09T04:46:40.086Z,192
2017-04-09T04:47:40.141Z,208
2017-04-09T04:48:40.196Z,228
2017-04-09T04:49:40.245Z,240
2017-04-09T04:50:40.300Z,260
2017-04-09T04:51:40.346Z,272
2017-04-09T04:52:40.401Z,292
2017-04-09T04:53:40.458Z,308
2017-04-09T04:54:40.509Z,324
2017-04-09T04:55:40.559Z,344
2017-04-09T04:56:40.613Z,360
2017-04-09T04:57:40.873Z,380
2017-04-09T04:58:40.922Z,396
2017-04-09T04:59:40.771Z,412
2017-04-09T05:00:40.828Z,432
2017-04-09T05:01:40.878Z,444
2017-04-09T05:02:40.926Z,464
2017-04-09T05:03:41.188Z,480
2017-04-09T05:04:41.042Z,496
2017-04-09T05:05:41.085Z,512
2017-04-09T05:06:41.144Z,528
2017-04-09T05:07:41.190Z,548
2017-04-09T05:08:41.244Z,564
2017-04-09T05:09:41.296Z,576
2017-04-09T05:10:41.349Z,596
2017-04-09T05:11:41.404Z,612
2017-04-09T05:12:41.459Z,624
2017-04-09T05:13:41.535Z,644
2017-04-09T05:14:41.559Z,660
2017-04-09T05:15:41.612Z,672
2017-04-09T05:16:41.666Z,688
2017-04-09T05:17:41.719Z,704
2017-04-09T05:18:41.776Z,716
2017-04-09T05:19:41.823Z,736
2017-04-09T05:20:41.878Z,752
2017-04-09T05:21:41.929Z,764
2017-04-09T05:22:41.983Z,780
2017-04-09T05:23:42.037Z,800
2017-04-09T05:24:42.087Z,816
2017-04-09T05:25:42.140Z,828
2017-04-09T05:26:42.192Z,844
2017-04-09T05:27:42.245Z,864
2017-04-09T05:28:42.297Z,876
2017-04-09T05:29:42.352Z,892
2017-04-09T05:30:42.400Z,908
2017-04-09T05:31:42.453Z,924
2017-04-09T05:32:42.513Z,936
2017-04-09T05:33:42.558Z,952
2017-04-09T05:34:42.616Z,968
2017-04-09T05:35:42.362Z,980
2017-04-09T05:36:42.722Z,1000
2017-04-09T05:37:42.982Z,1012
2017-04-09T05:38:42.730Z,1024
2017-04-09T05:39:42.875Z,1040
2017-04-09T05:40:42.927Z,1056
2017-04-09T05:41:42.684Z,1068
2017-04-09T05:42:43.035Z,1080
2017-04-09T05:43:43.086Z,1096
2017-04-09T05:44:43.149Z,1108
2017-04-09T05:45:43.192Z,1128
2017-04-09T05:46:43.250Z,1136
2017-04-09T05:47:43.310Z,1152
2017-04-09T05:48:43.363Z,1164
2017-04-09T05:49:43.403Z,1180
2017-04-09T05:50:43.158Z,1192
2017-04-09T05:51:43.516Z,1204
2017-04-09T05:52:43.263Z,1220
2017-04-09T05:53:43.621Z,1228
2017-04-09T05:54:43.669Z,1240
2017-04-09T05:55:43.763Z,1248
2017-04-09T05:56:43.788Z,1256
2017-04-09T05:57:43.837Z,1268
2017-04-09T05:58:43.883Z,1288
2017-04-09T05:59:43.944Z,1308
2017-04-09T06:00:43.983Z,1324
2017-04-09T06:01:44.042Z,1340
2017-04-09T06:02:44.101Z,1356
2017-04-09T06:03:44.150Z,1368
2017-04-09T06:04:44.201Z,1384
2017-04-09T06:05:44.263Z,1396
2017-04-09T06:06:44.305Z,1404
2017-04-09T06:07:44.356Z,1420
2017-04-09T06:08:44.421Z,1428
2017-04-09T06:09:44.463Z,1444
2017-04-09T06:10:44.519Z,1456
2017-04-09T06:11:44.575Z,1468
2017-04-09T06:12:44.626Z,1480
2017-04-09T06:13:44.678Z,1496
2017-04-09T06:14:44.730Z,1508
2017-04-09T06:15:44.783Z,1524
2017-04-09T06:16:44.837Z,1532
2017-04-09T06:17:44.889Z,1544
2017-04-09T06:18:44.940Z,1552
2017-04-09T06:19:44.998Z,1568
2017-04-09T06:20:45.050Z,1580
2017-04-09T06:21:45.112Z,1592
2017-04-09T06:22:45.157Z,1604
2017-04-09T06:23:45.222Z,1620
2017-04-09T06:24:45.257Z,1632
2017-04-09T06:25:45.011Z,1640
2017-04-09T06:26:45.366Z,1652
2017-04-09T06:27:45.419Z,1660
2017-04-09T06:28:45.472Z,1676
2017-04-09T06:29:45.524Z,1684
2017-04-09T06:30:45.578Z,1696
2017-04-09T06:31:45.633Z,1704
2017-04-09T06:32:45.687Z,1716
2017-04-09T06:33:45.736Z,1728
2017-04-09T06:34:45.793Z,1736
2017-04-09T06:35:45.843Z,1752
2017-04-09T06:36:45.900Z,1764
2017-04-09T06:37:45.953Z,1776
2017-04-09T06:38:45.701Z,1788
2017-04-09T06:39:46.054Z,1800
2017-04-09T06:40:46.135Z,1812
2017-04-09T06:41:46.198Z,1828
2017-04-09T06:42:46.214Z,1844
2017-04-09T06:43:46.267Z,1864
2017-04-09T06:44:46.326Z,1888
2017-04-09T06:45:46.075Z,1924
2017-04-09T06:46:46.126Z,1980
2017-04-09T06:47:46.482Z,2032
2017-04-09T06:48:46.538Z,2060
2017-04-09T06:49:46.588Z,2076
2017-04-09T06:50:46.639Z,2100
2017-04-09T06:51:46.696Z,2156
2017-04-09T06:52:46.744Z,2232
2017-04-09T06:53:46.801Z,2328
2017-04-09T06:54:46.859Z,2416
2017-04-09T06:55:46.909Z,2500
2017-04-09T06:56:46.960Z,2584
2017-04-09T06:57:47.019Z,2692
2017-04-09T06:58:47.063Z,2800
2017-04-09T06:59:47.118Z,2880
2017-04-09T07:00:47.172Z,2928
2017-04-09T07:01:47.229Z,2968
2017-04-09T07:02:47.282Z,3020
2017-04-09T07:03:47.337Z,3072
2017-04-09T07:04:47.085Z,3128
2017-04-09T07:05:47.438Z,3188
2017-04-09T07:06:47.493Z,3248
2017-04-09T07:07:47.550Z,3308
2017-04-09T07:08:47.598Z,3364
2017-04-09T07:09:47.655Z,3420
2017-04-09T07:10:47.709Z,3480
2017-04-09T07:11:47.761Z,3536
2017-04-09T07:12:47.814Z,3600
2017-04-09T07:13:47.868Z,3660
2017-04-09T07:14:47.666Z,3728
2017-04-09T07:15:47.975Z,3792
2017-04-09T07:16:48.027Z,3856
2017-04-09T07:17:48.084Z,3920
2017-04-09T07:18:48.138Z,3976
2017-04-09T07:19:48.191Z,4044
2017-04-09T07:20:47.944Z,4104
2017-04-09T07:21:48.296Z,4184
2017-04-09T07:22:48.358Z,4240
2017-04-09T07:23:48.409Z,4304
2017-04-09T07:24:48.459Z,4372
2017-04-09T07:25:48.210Z,4436
2017-04-09T07:26:48.568Z,4496
2017-04-09T07:27:48.620Z,4568
2017-04-09T07:28:48.676Z,4644
2017-04-09T07:29:48.728Z,4716
2017-04-09T07:30:48.782Z,4772
2017-04-09T07:31:48.634Z,4816
2017-04-09T07:32:48.891Z,4868
2017-04-09T07:33:48.941Z,4904
2017-04-09T07:34:49.001Z,4948
2017-04-09T07:35:49.048Z,4992
2017-04-09T07:36:49.108Z,5032
2017-04-09T07:37:49.165Z,5076
2017-04-09T07:38:49.214Z,5116
2017-04-09T07:39:48.966Z,5148
2017-04-09T07:40:49.017Z,5196
2017-04-09T07:41:49.378Z,5232
2017-04-09T07:42:49.430Z,5272
2017-04-09T07:43:49.487Z,5312
2017-04-09T07:44:49.537Z,5360
2017-04-09T07:45:49.590Z,5408
2017-04-09T07:46:49.648Z,5452
2017-04-09T07:47:49.694Z,5508
2017-04-09T07:48:49.763Z,5580
2017-04-09T07:49:49.808Z,5672
2017-04-09T07:50:49.865Z,5764
2017-04-09T07:51:49.916Z,5840
2017-04-09T07:52:49.974Z,5924
2017-04-09T07:53:50.022Z,6004
2017-04-09T07:54:50.116Z,6084
2017-04-09T07:55:50.139Z,6156
2017-04-09T07:56:50.193Z,6240
2017-04-09T07:57:50.244Z,6304
2017-04-09T07:58:50.304Z,6332
2017-04-09T07:59:50.354Z,6392
2017-04-09T08:00:50.409Z,6444
2017-04-09T08:01:50.468Z,6468
2017-04-09T08:02:50.524Z,6492
2017-04-09T08:03:50.577Z,6520
2017-04-09T08:04:50.630Z,6548
2017-04-09T08:05:50.685Z,6564
2017-04-09T08:06:50.746Z,6604
2017-04-09T08:07:50.801Z,6632
2017-04-09T08:08:50.859Z,6660
2017-04-09T08:09:50.914Z,6676
2017-04-09T08:10:50.966Z,6692
2017-04-09T08:11:51.019Z,6696
2017-04-09T08:12:51.077Z,6692
2017-04-09T08:13:51.128Z,6704
2017-04-09T08:14:51.190Z,6712
2017-04-09T08:15:51.244Z,6716
2017-04-09T08:16:51.299Z,6720
2017-04-09T08:17:51.360Z,6732
2017-04-09T08:18:51.410Z,6744
2017-04-09T08:19:51.470Z,6760
2017-04-09T08:20:51.526Z,6768
2017-04-09T08:21:51.580Z,6792
2017-04-09T08:22:51.642Z,6808
2017-04-09T08:23:51.705Z,6816
2017-04-09T08:24:51.751Z,6828
2017-04-09T08:25:51.809Z,6836
2017-04-09T08:26:51.868Z,6852
2017-04-09T08:27:52.028Z,6864
2017-04-09T08:28:51.991Z,6892
2017-04-09T08:29:52.044Z,6908
2017-04-09T08:30:52.092Z,6912
2017-04-09T08:31:52.146Z,6920
2017-04-09T08:32:52.214Z,6932
2017-04-09T08:33:52.264Z,6948
2017-04-09T08:34:52.021Z,6956
2017-04-09T08:35:52.377Z,6976
2017-04-09T08:36:52.437Z,7004
2017-04-09T08:37:52.493Z,7020
2017-04-09T08:38:52.552Z,7040
2017-04-09T08:39:52.607Z,7060
2017-04-09T08:40:52.694Z,7092
2017-04-09T08:41:52.423Z,7116
2017-04-09T08:42:52.779Z,7140
2017-04-09T08:43:52.833Z,7148
2017-04-09T08:44:52.898Z,7168
2017-04-09T08:45:52.672Z,7184
2017-04-09T08:46:53.010Z,7224
2017-04-09T08:47:53.067Z,7232
2017-04-09T08:48:53.127Z,7244
2017-04-09T08:49:53.182Z,7236
2017-04-09T08:50:53.244Z,7268
2017-04-09T08:51:53.301Z,7308
2017-04-09T08:52:53.354Z,7292
2017-04-09T08:53:53.415Z,7292
2017-04-09T08:54:53.476Z,7320
2017-04-09T08:55:53.532Z,7312
2017-04-09T08:56:53.587Z,7312
2017-04-09T08:57:53.650Z,7324
2017-04-09T08:58:53.709Z,7324
2017-04-09T08:59:53.759Z,7324
2017-04-09T09:00:53.824Z,7332
2017-04-09T09:01:53.878Z,7328
2017-04-09T09:02:53.938Z,7320
2017-04-09T09:03:53.993Z,7332
2017-04-09T09:04:54.054Z,7332
2017-04-09T09:05:54.107Z,7332
2017-04-09T09:06:54.169Z,7340
2017-04-09T09:07:54.229Z,7344
2017-04-09T09:08:54.280Z,7344
2017-04-09T09:09:54.339Z,7352
2017-04-09T09:10:54.401Z,7352
2017-04-09T09:11:54.458Z,7356
2017-04-09T09:12:54.520Z,7360
2017-04-09T09:13:54.573Z,7356
2017-04-09T09:14:54.629Z,7364
2017-04-09T09:15:54.688Z,7380
2017-04-09T09:16:54.749Z,7376
2017-04-09T09:17:54.805Z,7372
2017-04-09T09:18:54.864Z,7376
2017-04-09T09:19:54.932Z,7376
2017-04-09T09:20:54.981Z,7376
2017-04-09T09:21:54.737Z,7380
2017-04-09T09:22:55.104Z,7376
2017-04-09T09:23:55.166Z,7376
2017-04-09T09:24:55.221Z,7376
2017-04-09T09:25:55.279Z,7372
2017-04-09T09:26:55.336Z,7368
2017-04-09T09:27:55.390Z,7368
2017-04-09T09:28:55.451Z,7368
2017-04-09T09:29:55.513Z,7376
2017-04-09T09:30:55.570Z,7380
2017-04-09T09:31:55.627Z,7380
2017-04-09T09:32:55.692Z,7368
2017-04-09T09:33:55.756Z,7368
2017-04-09T09:34:55.807Z,7376
2017-04-09T09:35:55.869Z,7360
2017-04-09T09:36:55.922Z,7364
2017-04-09T09:37:55.986Z,7348
2017-04-09T09:38:56.048Z,7352
2017-04-09T09:39:55.808Z,7348
2017-04-09T09:40:56.156Z,7356
2017-04-09T09:41:56.215Z,7348
2017-04-09T09:42:56.279Z,7348
2017-04-09T09:43:56.333Z,7336
2017-04-09T09:44:56.397Z,7340
2017-04-09T09:45:56.461Z,7348
2017-04-09T09:46:56.513Z,7336
2017-04-09T09:47:56.573Z,7320
2017-04-09T09:48:56.635Z,7316
2017-04-09T09:49:56.694Z,7300
2017-04-09T09:50:56.750Z,7300
2017-04-09T09:51:56.810Z,7292
2017-04-09T09:52:56.574Z,7296
2017-04-09T09:53:56.932Z,7292
2017-04-09T09:54:56.993Z,7280
2017-04-09T09:55:57.047Z,7280
2017-04-09T09:56:57.116Z,7276
2017-04-09T09:57:57.171Z,7272
2017-04-09T09:58:57.238Z,7264
2017-04-09T09:59:57.298Z,7272
2017-04-09T10:00:57.343Z,7264
2017-04-09T10:01:57.408Z,7252
2017-04-09T10:02:57.465Z,7252
2017-04-09T10:03:57.522Z,7244
2017-04-09T10:04:57.584Z,7240
2017-04-09T10:05:57.640Z,7228
2017-04-09T10:06:57.703Z,7216
2017-04-09T10:07:57.762Z,7216
2017-04-09T10:08:57.824Z,7216
2017-04-09T10:09:57.881Z,7220
2017-04-09T10:10:57.943Z,7204
2017-04-09T10:11:57.999Z,7208
2017-04-09T10:12:58.070Z,7196
2017-04-09T10:13:58.121Z,7196
2017-04-09T10:14:58.192Z,7192
2017-04-09T10:15:58.243Z,7188
2017-04-09T10:16:58.294Z,7172
2017-04-09T10:17:58.359Z,7168
2017-04-09T10:18:58.423Z,7160
2017-04-09T10:19:58.478Z,7148
2017-04-09T10:20:58.534Z,7136
2017-04-09T10:21:58.598Z,7116
2017-04-09T10:22:58.655Z,7108
2017-04-09T10:23:58.412Z,7108
2017-04-09T10:24:58.773Z,7100
2017-04-09T10:25:58.836Z,7084
2017-04-09T10:26:58.890Z,7080
2017-04-09T10:27:58.956Z,7080
2017-04-09T10:28:59.011Z,7064
2017-04-09T10:29:59.068Z,7072
2017-04-09T10:30:59.129Z,7060
2017-04-09T10:31:59.195Z,7040
2017-04-09T10:32:59.250Z,7012
2017-04-09T10:33:59.007Z,6980
2017-04-09T10:34:59.373Z,6948
2017-04-09T10:35:59.435Z,6904
2017-04-09T10:36:59.485Z,6872
2017-04-09T10:37:59.547Z,6816
2017-04-09T10:38:59.604Z,6772
2017-04-09T10:39:59.669Z,6704
2017-04-09T10:40:59.728Z,6640
2017-04-09T10:41:59.482Z,6584
2017-04-09T10:42:59.851Z,6508
2017-04-09T10:43:59.902Z,6452
2017-04-09T10:44:59.974Z,6404
2017-04-09T10:45:59.725Z,6336
2017-04-09T10:47:00.088Z,6268
2017-04-09T10:48:00.141Z,6192
2017-04-09T10:49:00.199Z,6184
2017-04-09T10:50:00.270Z,6172
2017-04-09T10:51:00.322Z,6176
2017-04-09T10:52:00.381Z,6156
2017-04-09T10:53:00.479Z,6128
2017-04-09T10:54:00.504Z,6120
2017-04-09T10:55:00.555Z,6108
2017-04-09T10:56:00.619Z,6108
2017-04-09T10:57:00.676Z,6092
2017-04-09T10:58:00.746Z,6084
2017-04-09T10:59:00.800Z,6072
2017-04-09T11:00:00.858Z,6060
2017-04-09T11:01:00.915Z,6064
2017-04-09T11:02:00.978Z,6028
2017-04-09T11:03:01.032Z,6004
2017-04-09T11:04:01.091Z,6004
2017-04-09T11:05:01.154Z,5992
2017-04-09T11:06:01.214Z,5972
2017-04-09T11:07:01.275Z,5956
2017-04-09T11:08:01.338Z,5936
2017-04-09T11:09:01.393Z,5920
2017-04-09T11:10:01.454Z,5896
2017-04-09T11:11:01.509Z,5880
2017-04-09T11:12:01.567Z,5872
2017-04-09T11:13:01.630Z,5848
2017-04-09T11:14:01.385Z,5832
2017-04-09T11:15:01.446Z,5824
2017-04-09T11:16:01.806Z,5824
2017-04-09T11:17:01.867Z,5820
2017-04-09T11:18:01.943Z,5800
2017-04-09T11:19:01.989Z,5784
2017-04-09T11:20:02.047Z,5756
2017-04-09T11:21:02.105Z,5732
2017-04-09T11:22:02.165Z,5708
2017-04-09T11:23:01.925Z,5688
2017-04-09T11:24:02.285Z,5664
2017-04-09T11:25:02.350Z,5636
2017-04-09T11:26:02.401Z,5604
2017-04-09T11:27:02.459Z,5580
2017-04-09T11:28:02.521Z,5564
2017-04-09T11:29:02.586Z,5544
2017-04-09T11:30:02.633Z,5532
2017-04-09T11:31:02.702Z,5520
2017-04-09T11:32:02.460Z,5492
2017-04-09T11:33:02.816Z,5448
2017-04-09T11:34:02.879Z,5432
2017-04-09T11:35:02.935Z,5428
2017-04-09T11:36:02.994Z,5412
2017-04-09T11:37:03.051Z,5388
2017-04-09T11:38:03.120Z,5364
2017-04-09T11:39:03.172Z,5340
2017-04-09T11:40:03.228Z,5296
2017-04-09T11:41:03.290Z,5264
2017-04-09T11:42:03.346Z,5240
2017-04-09T11:43:03.410Z,5208
2017-04-09T11:44:03.467Z,5176
2017-04-09T11:45:03.529Z,5164
2017-04-09T11:46:03.587Z,5140
2017-04-09T11:47:03.644Z,5116
2017-04-09T11:48:03.702Z,5084
2017-04-09T11:49:03.761Z,5060
2017-04-09T11:50:03.825Z,5012
2017-04-09T11:51:03.879Z,4968
2017-04-09T11:52:03.939Z,4932
2017-04-09T11:53:04.000Z,4884
2017-04-09T11:54:04.064Z,4828
2017-04-09T11:55:04.118Z,4748
2017-04-09T11:56:04.177Z,4640
2017-04-09T11:57:04.241Z,4568
2017-04-09T11:58:04.299Z,4480
2017-04-09T11:59:04.355Z,4400
2017-04-09T12:00:04.422Z,4324
2017-04-09T12:01:04.470Z,4280
2017-04-09T12:02:04.535Z,4208
2017-04-09T12:03:04.599Z,4092
2017-04-09T12:04:04.645Z,4060
2017-04-09T12:05:04.411Z,4040
2017-04-09T12:06:04.764Z,3980
2017-04-09T12:07:04.835Z,3904
2017-04-09T12:08:04.886Z,3932
2017-04-09T12:09:04.947Z,4100
2017-04-09T12:10:05.014Z,4024
2017-04-09T12:11:05.060Z,3820
2017-04-09T12:12:04.821Z,3728
2017-04-09T12:13:05.180Z,3692
2017-04-09T12:14:05.233Z,3612
2017-04-09T12:15:04.992Z,3528
2017-04-09T12:16:05.352Z,3468
2017-04-09T12:17:05.412Z,3432
2017-04-09T12:18:05.474Z,3428
2017-04-09T12:19:05.530Z,3416
2017-04-09T12:20:05.289Z,3388
2017-04-09T12:21:05.645Z,3384
2017-04-09T12:22:05.406Z,3356
2017-04-09T12:23:05.761Z,3328
2017-04-09T12:24:05.823Z,3324
2017-04-09T12:25:05.880Z,3388
2017-04-09T12:26:05.638Z,3516
2017-04-09T12:27:05.696Z,3624
2017-04-09T12:28:06.056Z,3664
2017-04-09T12:29:06.118Z,3668
2017-04-09T12:30:06.173Z,3576
2017-04-09T12:31:06.234Z,3468
2017-04-09T12:32:05.991Z,3328
2017-04-09T12:33:06.347Z,3160
2017-04-09T12:34:06.405Z,3148
2017-04-09T12:35:06.464Z,3272
2017-04-09T12:36:06.525Z,3388
2017-04-09T12:37:06.584Z,3424
2017-04-09T12:38:06.333Z,3468
2017-04-09T12:39:06.695Z,3408
2017-04-09T12:40:06.758Z,3240
2017-04-09T12:41:06.811Z,3104
2017-04-09T12:42:06.875Z,3040
2017-04-09T12:43:06.934Z,3024
2017-04-09T12:44:06.984Z,3060
2017-04-09T12:45:07.045Z,3288
2017-04-09T12:46:06.804Z,3424
2017-04-09T12:47:07.160Z,3468
2017-04-09T12:48:07.240Z,3636
2017-04-09T12:49:07.285Z,3788
2017-04-09T12:50:07.334Z,3768
2017-04-09T12:51:07.390Z,3760
2017-04-09T12:52:07.446Z,3836
2017-04-09T12:53:07.513Z,3764
2017-04-09T12:54:07.570Z,3580
2017-04-09T12:55:07.623Z,3424
2017-04-09T12:56:07.674Z,3288
2017-04-09T12:57:07.736Z,3136
2017-04-09T12:58:07.797Z,3092
2017-04-09T12:59:07.850Z,2204
2017-04-09T13:00:07.607Z,3676
2017-04-09T13:01:07.964Z,3940
2017-04-09T13:02:08.021Z,3652
2017-04-09T13:03:08.077Z,2652
2017-04-09T13:04:07.840Z,3380
2017-04-09T13:05:07.886Z,3724
2017-04-09T13:06:07.958Z,3928
2017-04-09T13:07:08.310Z,3936
2017-04-09T13:08:08.064Z,3860
2017-04-09T13:09:08.424Z,4000
2017-04-09T13:10:08.178Z,4008
2017-04-09T13:11:08.538Z,3496
2017-04-09T13:12:08.292Z,3068
2017-04-09T13:13:08.647Z,3088
2017-04-09T13:14:08.712Z,3128
2017-04-09T13:15:08.769Z,3152
2017-04-09T13:16:08.519Z,3172
2017-04-09T13:17:08.886Z,3108
2017-04-09T13:18:08.932Z,3200
2017-04-09T13:19:08.992Z,4240
2017-04-09T13:20:09.049Z,3484
2017-04-09T13:21:09.116Z,4156
2017-04-09T13:22:09.175Z,4304
2017-04-09T13:23:09.220Z,4052
2017-04-09T13:24:09.278Z,4968
2017-04-09T13:25:09.337Z,4928
2017-04-09T13:26:09.091Z,4912
2017-04-09T13:27:09.446Z,4720
2017-04-09T13:28:09.507Z,3916
2017-04-09T13:29:09.562Z,3548
2017-04-09T13:30:09.623Z,3396
2017-04-09T13:31:09.675Z,3280
2017-04-09T13:32:09.732Z,3336
2017-04-09T13:33:09.797Z,3248
2017-04-09T13:34:09.852Z,3044
2017-04-09T13:35:09.910Z,3924
2017-04-09T13:36:09.963Z,4112
2017-04-09T13:37:10.018Z,4200
2017-04-09T13:38:09.771Z,3884
2017-04-09T13:39:10.136Z,3804
2017-04-09T13:40:09.888Z,4800
2017-04-09T13:41:10.247Z,4372
2017-04-09T13:42:10.306Z,3980
2017-04-09T13:43:10.360Z,3868
2017-04-09T13:44:10.415Z,2940
2017-04-09T13:45:10.475Z,2800
2017-04-09T13:46:10.528Z,2900
2017-04-09T13:47:10.587Z,3496
2017-04-09T13:48:10.642Z,3788